sensor_id;sensor_type;location;lat;lon;timestamp;P1;durP1;ratioP1;P2;durP2;ratioP2
28373;SDS011;15616;40.148;-102.718;2022-08-21T00:02:02;7.40;;;4.10;;
28373;SDS011;15616;40.148;-102.718;2022-08-21T00:04:29;6.57;;;4.60;;
28373;SDS011;15616;40.148;-102.718;2022-08-21T00:06:56;7.20;;;4.15;;
28373;SDS011;15616;40.148;-102.718;2022-08-21T00:09:23;9.82;;;4.32;;
28373;SDS011;15616;40.148;-102.718;2022-08-21T00:11:49;8.00;;;4.60;;
28373;SDS011;15616;40.148;-102.718;2022-08-21T00:14:16;5.75;;;3.97;;
28373;SDS011;15616;40.148;-102.718;2022-08-21T00:16:42;7.18;;;4.22;;
28373;SDS011;15616;40.148;-102.718;2022-08-21T00:19:08;6.88;;;4.38;;
28373;SDS011;15616;40.148;-102.718;2022-08-21T00:21:34;9.32;;;4.32;;
28373;SDS011;15616;40.148;-102.718;2022-08-21T00:24:01;6.57;;;4.22;;
28373;SDS011;15616;40.148;-102.718;2022-08-21T00:26:27;6.43;;;3.85;;
28373;SDS011;15616;40.148;-102.718;2022-08-21T00:28:53;6.75;;;4.53;;
28373;SDS011;15616;40.148;-102.718;2022-08-21T00:31:19;7.95;;;3.95;;
28373;SDS011;15616;40.148;-102.718;2022-08-21T00:33:45;7.03;;;4.25;;
28373;SDS011;15616;40.148;-102.718;2022-08-21T00:36:11;7.72;;;4.55;;
28373;SDS011;15616;40.148;-102.718;2022-08-21T00:38:38;6.47;;;4.07;;
28373;SDS011;15616;40.148;-102.718;2022-08-21T00:41:05;6.72;;;3.80;;
28373;SDS011;15616;40.148;-102.718;2022-08-21T00:43:34;6.88;;;4.45;;
28373;SDS011;15616;40.148;-102.718;2022-08-21T00:46:02;6.80;;;3.80;;
28373;SDS011;15616;40.148;-102.718;2022-08-21T00:48:29;14.85;;;3.88;;
28373;SDS011;15616;40.148;-102.718;2022-08-21T00:51:07;7.18;;;4.07;;
28373;SDS011;15616;40.148;-102.718;2022-08-21T00:53:40;7.72;;;4.20;;
28373;SDS011;15616;40.148;-102.718;2022-08-21T00:56:09;7.47;;;4.28;;
28373;SDS011;15616;40.148;-102.718;2022-08-21T00:58:37;7.57;;;4.32;;
28373;SDS011;15616;40.148;-102.718;2022-08-21T01:01:06;6.18;;;3.88;;
28373;SDS011;15616;40.148;-102.718;2022-08-21T01:03:33;8.20;;;4.18;;
28373;SDS011;15616;40.148;-102.718;2022-08-21T01:05:59;7.85;;;4.28;;
28373;SDS011;15616;40.148;-102.718;2022-08-21T01:08:25;7.53;;;4.13;;
28373;SDS011;15616;40.148;-102.718;2022-08-21T01:10:54;6.57;;;4.07;;
28373;SDS011;15616;40.148;-102.718;2022-08-21T01:13:21;8.98;;;4.18;;
28373;SDS011;15616;40.148;-102.718;2022-08-21T01:15:50;6.57;;;3.83;;
28373;SDS011;15616;40.148;-102.718;2022-08-21T01:18:19;7.28;;;4.25;;
28373;SDS011;15616;40.148;-102.718;2022-08-21T01:21:03;5.65;;;3.80;;
28373;SDS011;15616;40.148;-102.718;2022-08-21T01:23:35;6.35;;;4.00;;
28373;SDS011;15616;40.148;-102.718;2022-08-21T01:26:04;6.05;;;3.92;;
28373;SDS011;15616;40.148;-102.718;2022-08-21T01:28:33;6.63;;;4.20;;
28373;SDS011;15616;40.148;-102.718;2022-08-21T01:31:05;7.05;;;3.83;;
28373;SDS011;15616;40.148;-102.718;2022-08-21T01:33:33;5.50;;;3.70;;
28373;SDS011;15616;40.148;-102.718;2022-08-21T01:35:59;7.13;;;4.30;;
28373;SDS011;15616;40.148;-102.718;2022-08-21T01:38:25;6.38;;;3.90;;
28373;SDS011;15616;40.148;-102.718;2022-08-21T01:40:51;9.43;;;4.40;;
28373;SDS011;15616;40.148;-102.718;2022-08-21T01:43:17;5.85;;;3.70;;
28373;SDS011;15616;40.148;-102.718;2022-08-21T01:45:43;6.97;;;3.70;;
28373;SDS011;15616;40.148;-102.718;2022-08-21T01:48:09;8.30;;;4.00;;
28373;SDS011;15616;40.148;-102.718;2022-08-21T01:50:35;7.18;;;3.97;;
28373;SDS011;15616;40.148;-102.718;2022-08-21T01:53:02;6.35;;;3.85;;
28373;SDS011;15616;40.148;-102.718;2022-08-21T01:55:28;7.50;;;4.03;;
28373;SDS011;15616;40.148;-102.718;2022-08-21T01:57:54;6.97;;;4.00;;
28373;SDS011;15616;40.148;-102.718;2022-08-21T02:00:21;7.60;;;4.05;;
28373;SDS011;15616;40.148;-102.718;2022-08-21T02:02:50;10.32;;;4.13;;
28373;SDS011;15616;40.148;-102.718;2022-08-21T02:05:17;6.85;;;3.80;;
28373;SDS011;15616;40.148;-102.718;2022-08-21T02:07:45;7.40;;;3.88;;
28373;SDS011;15616;40.148;-102.718;2022-08-21T02:10:14;9.25;;;4.00;;
28373;SDS011;15616;40.148;-102.718;2022-08-21T02:12:47;6.30;;;4.30;;
28373;SDS011;15616;40.148;-102.718;2022-08-21T02:15:14;6.03;;;3.72;;
28373;SDS011;15616;40.148;-102.718;2022-08-21T02:17:44;9.73;;;3.83;;
28373;SDS011;15616;40.148;-102.718;2022-08-21T02:20:16;7.07;;;3.80;;
28373;SDS011;15616;40.148;-102.718;2022-08-21T02:22:54;5.60;;;3.70;;
28373;SDS011;15616;40.148;-102.718;2022-08-21T02:25:21;7.57;;;3.72;;
28373;SDS011;15616;40.148;-102.718;2022-08-21T02:27:49;6.80;;;4.03;;
28373;SDS011;15616;40.148;-102.718;2022-08-21T02:30:21;7.78;;;3.70;;
28373;SDS011;15616;40.148;-102.718;2022-08-21T02:32:54;6.35;;;3.97;;
28373;SDS011;15616;40.148;-102.718;2022-08-21T02:35:21;8.38;;;3.80;;
28373;SDS011;15616;40.148;-102.718;2022-08-21T02:37:48;6.03;;;4.00;;
28373;SDS011;15616;40.148;-102.718;2022-08-21T02:40:21;6.15;;;3.80;;
28373;SDS011;15616;40.148;-102.718;2022-08-21T02:42:51;5.85;;;3.55;;
28373;SDS011;15616;40.148;-102.718;2022-08-21T02:45:17;6.15;;;3.42;;
28373;SDS011;15616;40.148;-102.718;2022-08-21T02:47:51;6.18;;;3.65;;
28373;SDS011;15616;40.148;-102.718;2022-08-21T02:50:20;6.50;;;4.07;;
28373;SDS011;15616;40.148;-102.718;2022-08-21T02:52:49;6.22;;;3.88;;
28373;SDS011;15616;40.148;-102.718;2022-08-21T02:55:21;5.25;;;3.53;;
28373;SDS011;15616;40.148;-102.718;2022-08-21T02:57:48;6.25;;;3.63;;
28373;SDS011;15616;40.148;-102.718;2022-08-21T03:00:15;5.85;;;3.78;;
28373;SDS011;15616;40.148;-102.718;2022-08-21T03:02:41;5.57;;;3.92;;
28373;SDS011;15616;40.148;-102.718;2022-08-21T03:05:08;7.93;;;3.70;;
28373;SDS011;15616;40.148;-102.718;2022-08-21T03:07:36;7.75;;;3.80;;
28373;SDS011;15616;40.148;-102.718;2022-08-21T03:10:03;8.10;;;3.92;;
28373;SDS011;15616;40.148;-102.718;2022-08-21T03:12:30;7.50;;;4.00;;
28373;SDS011;15616;40.148;-102.718;2022-08-21T03:14:56;6.88;;;3.25;;
28373;SDS011;15616;40.148;-102.718;2022-08-21T03:17:23;6.30;;;3.47;;
28373;SDS011;15616;40.148;-102.718;2022-08-21T03:19:50;5.28;;;3.50;;
28373;SDS011;15616;40.148;-102.718;2022-08-21T03:22:16;6.35;;;3.50;;
28373;SDS011;15616;40.148;-102.718;2022-08-21T03:24:42;5.93;;;3.65;;
28373;SDS011;15616;40.148;-102.718;2022-08-21T03:27:08;6.13;;;3.60;;
28373;SDS011;15616;40.148;-102.718;2022-08-21T03:29:34;5.72;;;3.78;;
28373;SDS011;15616;40.148;-102.718;2022-08-21T03:32:00;8.32;;;3.67;;
28373;SDS011;15616;40.148;-102.718;2022-08-21T03:34:26;5.15;;;3.30;;
28373;SDS011;15616;40.148;-102.718;2022-08-21T03:36:52;8.15;;;3.60;;
28373;SDS011;15616;40.148;-102.718;2022-08-21T03:39:17;5.93;;;3.33;;
28373;SDS011;15616;40.148;-102.718;2022-08-21T03:41:43;5.32;;;3.42;;
28373;SDS011;15616;40.148;-102.718;2022-08-21T03:44:10;8.90;;;3.72;;
28373;SDS011;15616;40.148;-102.718;2022-08-21T03:46:36;6.85;;;3.83;;
28373;SDS011;15616;40.148;-102.718;2022-08-21T03:49:02;5.47;;;3.38;;
28373;SDS011;15616;40.148;-102.718;2022-08-21T03:51:28;6.60;;;3.75;;
28373;SDS011;15616;40.148;-102.718;2022-08-21T03:53:57;6.18;;;3.35;;
28373;SDS011;15616;40.148;-102.718;2022-08-21T03:56:23;6.38;;;3.75;;
28373;SDS011;15616;40.148;-102.718;2022-08-21T03:58:49;7.40;;;3.55;;
28373;SDS011;15616;40.148;-102.718;2022-08-21T04:01:15;5.30;;;3.45;;
28373;SDS011;15616;40.148;-102.718;2022-08-21T04:03:41;6.63;;;3.72;;
28373;SDS011;15616;40.148;-102.718;2022-08-21T04:06:07;4.50;;;3.00;;
28373;SDS011;15616;40.148;-102.718;2022-08-21T04:08:34;4.85;;;3.28;;
28373;SDS011;15616;40.148;-102.718;2022-08-21T04:11:00;10.32;;;4.07;;
28373;SDS011;15616;40.148;-102.718;2022-08-21T04:13:26;7.70;;;3.35;;
28373;SDS011;15616;40.148;-102.718;2022-08-21T04:15:53;6.63;;;3.50;;
28373;SDS011;15616;40.148;-102.718;2022-08-21T04:18:20;6.30;;;3.30;;
28373;SDS011;15616;40.148;-102.718;2022-08-21T04:20:47;6.03;;;3.40;;
28373;SDS011;15616;40.148;-102.718;2022-08-21T04:23:15;5.30;;;3.30;;
28373;SDS011;15616;40.148;-102.718;2022-08-21T04:25:42;4.93;;;3.10;;
28373;SDS011;15616;40.148;-102.718;2022-08-21T04:28:08;6.75;;;3.50;;
28373;SDS011;15616;40.148;-102.718;2022-08-21T04:30:34;5.38;;;3.33;;
28373;SDS011;15616;40.148;-102.718;2022-08-21T04:33:00;5.70;;;3.22;;
28373;SDS011;15616;40.148;-102.718;2022-08-21T04:35:27;6.43;;;3.60;;
28373;SDS011;15616;40.148;-102.718;2022-08-21T04:37:53;5.90;;;3.30;;
28373;SDS011;15616;40.148;-102.718;2022-08-21T04:40:20;7.53;;;3.67;;
28373;SDS011;15616;40.148;-102.718;2022-08-21T04:42:48;5.80;;;3.25;;
28373;SDS011;15616;40.148;-102.718;2022-08-21T04:45:20;5.97;;;3.38;;
28373;SDS011;15616;40.148;-102.718;2022-08-21T04:47:52;7.60;;;3.50;;
28373;SDS011;15616;40.148;-102.718;2022-08-21T04:50:20;5.68;;;3.20;;
28373;SDS011;15616;40.148;-102.718;2022-08-21T04:52:50;5.00;;;3.08;;
28373;SDS011;15616;40.148;-102.718;2022-08-21T04:55:16;5.15;;;3.17;;
28373;SDS011;15616;40.148;-102.718;2022-08-21T04:57:44;9.07;;;3.70;;
28373;SDS011;15616;40.148;-102.718;2022-08-21T05:00:10;5.25;;;3.40;;
28373;SDS011;15616;40.148;-102.718;2022-08-21T05:02:38;6.90;;;3.53;;
28373;SDS011;15616;40.148;-102.718;2022-08-21T05:05:05;5.57;;;3.38;;
28373;SDS011;15616;40.148;-102.718;2022-08-21T05:07:32;7.13;;;3.00;;
28373;SDS011;15616;40.148;-102.718;2022-08-21T05:10:00;6.95;;;3.40;;
28373;SDS011;15616;40.148;-102.718;2022-08-21T05:12:26;8.80;;;3.40;;
28373;SDS011;15616;40.148;-102.718;2022-08-21T05:14:52;6.82;;;3.28;;
28373;SDS011;15616;40.148;-102.718;2022-08-21T05:17:18;4.40;;;2.80;;
28373;SDS011;15616;40.148;-102.718;2022-08-21T05:19:44;6.28;;;3.28;;
28373;SDS011;15616;40.148;-102.718;2022-08-21T05:22:10;4.72;;;3.10;;
28373;SDS011;15616;40.148;-102.718;2022-08-21T05:24:36;5.25;;;2.88;;
28373;SDS011;15616;40.148;-102.718;2022-08-21T05:27:03;6.47;;;3.30;;
28373;SDS011;15616;40.148;-102.718;2022-08-21T05:29:29;6.05;;;3.58;;
28373;SDS011;15616;40.148;-102.718;2022-08-21T05:31:55;7.30;;;3.42;;
28373;SDS011;15616;40.148;-102.718;2022-08-21T05:34:22;7.47;;;3.50;;
28373;SDS011;15616;40.148;-102.718;2022-08-21T05:36:48;5.82;;;3.00;;
28373;SDS011;15616;40.148;-102.718;2022-08-21T05:39:14;6.07;;;3.00;;
28373;SDS011;15616;40.148;-102.718;2022-08-21T05:41:40;5.32;;;3.22;;
28373;SDS011;15616;40.148;-102.718;2022-08-21T05:44:06;6.32;;;3.22;;
28373;SDS011;15616;40.148;-102.718;2022-08-21T05:46:32;6.78;;;3.63;;
28373;SDS011;15616;40.148;-102.718;2022-08-21T05:48:58;5.38;;;3.25;;
28373;SDS011;15616;40.148;-102.718;2022-08-21T05:51:24;5.32;;;2.92;;
28373;SDS011;15616;40.148;-102.718;2022-08-21T05:53:50;6.25;;;3.35;;
28373;SDS011;15616;40.148;-102.718;2022-08-21T05:56:16;5.75;;;3.20;;
28373;SDS011;15616;40.148;-102.718;2022-08-21T05:58:42;5.93;;;3.50;;
28373;SDS011;15616;40.148;-102.718;2022-08-21T06:01:08;5.22;;;3.22;;
28373;SDS011;15616;40.148;-102.718;2022-08-21T06:03:36;4.85;;;3.13;;
28373;SDS011;15616;40.148;-102.718;2022-08-21T06:06:03;5.00;;;2.97;;
28373;SDS011;15616;40.148;-102.718;2022-08-21T06:08:29;6.38;;;3.40;;
28373;SDS011;15616;40.148;-102.718;2022-08-21T06:10:56;6.55;;;3.38;;
28373;SDS011;15616;40.148;-102.718;2022-08-21T06:13:24;5.82;;;2.95;;
28373;SDS011;15616;40.148;-102.718;2022-08-21T06:16:00;5.38;;;3.10;;
28373;SDS011;15616;40.148;-102.718;2022-08-21T06:18:52;5.65;;;3.03;;
28373;SDS011;15616;40.148;-102.718;2022-08-21T06:21:18;6.25;;;3.15;;
28373;SDS011;15616;40.148;-102.718;2022-08-21T06:23:44;6.47;;;3.35;;
28373;SDS011;15616;40.148;-102.718;2022-08-21T06:26:11;5.55;;;3.15;;
28373;SDS011;15616;40.148;-102.718;2022-08-21T06:28:39;7.90;;;3.50;;
28373;SDS011;15616;40.148;-102.718;2022-08-21T06:33:45;6.60;;;3.03;;
28373;SDS011;15616;40.148;-102.718;2022-08-21T06:36:11;7.25;;;3.22;;
28373;SDS011;15616;40.148;-102.718;2022-08-21T06:38:37;6.00;;;3.22;;
28373;SDS011;15616;40.148;-102.718;2022-08-21T06:41:04;8.82;;;3.42;;
28373;SDS011;15616;40.148;-102.718;2022-08-21T06:43:30;5.93;;;3.22;;
28373;SDS011;15616;40.148;-102.718;2022-08-21T06:45:56;7.07;;;2.97;;
28373;SDS011;15616;40.148;-102.718;2022-08-21T06:48:22;6.30;;;3.35;;
28373;SDS011;15616;40.148;-102.718;2022-08-21T06:50:48;7.75;;;3.50;;
28373;SDS011;15616;40.148;-102.718;2022-08-21T06:53:17;7.70;;;3.15;;
28373;SDS011;15616;40.148;-102.718;2022-08-21T06:55:45;6.88;;;3.15;;
28373;SDS011;15616;40.148;-102.718;2022-08-21T06:58:12;6.38;;;3.20;;
28373;SDS011;15616;40.148;-102.718;2022-08-21T07:00:39;6.80;;;3.40;;
28373;SDS011;15616;40.148;-102.718;2022-08-21T07:03:07;5.78;;;3.13;;
28373;SDS011;15616;40.148;-102.718;2022-08-21T07:05:32;6.47;;;2.95;;
28373;SDS011;15616;40.148;-102.718;2022-08-21T07:07:58;6.35;;;3.10;;
28373;SDS011;15616;40.148;-102.718;2022-08-21T07:10:25;6.20;;;3.22;;
28373;SDS011;15616;40.148;-102.718;2022-08-21T07:12:52;6.00;;;2.95;;
28373;SDS011;15616;40.148;-102.718;2022-08-21T07:15:20;9.43;;;3.33;;
28373;SDS011;15616;40.148;-102.718;2022-08-21T07:17:45;7.72;;;3.47;;
28373;SDS011;15616;40.148;-102.718;2022-08-21T07:20:11;6.05;;;3.15;;
28373;SDS011;15616;40.148;-102.718;2022-08-21T07:22:38;6.25;;;3.15;;
28373;SDS011;15616;40.148;-102.718;2022-08-21T07:25:05;6.72;;;3.47;;
28373;SDS011;15616;40.148;-102.718;2022-08-21T07:27:31;6.22;;;3.30;;
28373;SDS011;15616;40.148;-102.718;2022-08-21T07:29:57;6.75;;;3.35;;
28373;SDS011;15616;40.148;-102.718;2022-08-21T07:32:24;6.03;;;3.10;;
28373;SDS011;15616;40.148;-102.718;2022-08-21T07:34:50;6.82;;;3.25;;
28373;SDS011;15616;40.148;-102.718;2022-08-21T07:37:15;6.75;;;3.20;;
28373;SDS011;15616;40.148;-102.718;2022-08-21T07:39:41;7.05;;;3.17;;
28373;SDS011;15616;40.148;-102.718;2022-08-21T07:42:07;5.78;;;3.10;;
28373;SDS011;15616;40.148;-102.718;2022-08-21T07:44:35;7.30;;;3.50;;
28373;SDS011;15616;40.148;-102.718;2022-08-21T07:47:01;8.82;;;3.30;;
28373;SDS011;15616;40.148;-102.718;2022-08-21T07:49:27;7.20;;;3.40;;
28373;SDS011;15616;40.148;-102.718;2022-08-21T07:51:53;9.25;;;3.30;;
28373;SDS011;15616;40.148;-102.718;2022-08-21T07:54:20;7.63;;;3.20;;
28373;SDS011;15616;40.148;-102.718;2022-08-21T07:56:46;6.95;;;3.33;;
28373;SDS011;15616;40.148;-102.718;2022-08-21T07:59:11;6.22;;;3.35;;
28373;SDS011;15616;40.148;-102.718;2022-08-21T08:01:37;6.43;;;3.17;;
28373;SDS011;15616;40.148;-102.718;2022-08-21T08:04:03;6.20;;;2.92;;
28373;SDS011;15616;40.148;-102.718;2022-08-21T08:06:29;6.97;;;3.00;;
28373;SDS011;15616;40.148;-102.718;2022-08-21T08:08:55;7.60;;;3.33;;
28373;SDS011;15616;40.148;-102.718;2022-08-21T08:11:21;6.28;;;3.15;;
28373;SDS011;15616;40.148;-102.718;2022-08-21T08:13:48;6.95;;;3.22;;
28373;SDS011;15616;40.148;-102.718;2022-08-21T08:16:15;7.30;;;3.47;;
28373;SDS011;15616;40.148;-102.718;2022-08-21T08:18:42;5.95;;;3.25;;
28373;SDS011;15616;40.148;-102.718;2022-08-21T08:21:09;8.25;;;3.38;;
28373;SDS011;15616;40.148;-102.718;2022-08-21T08:23:36;6.15;;;3.40;;
28373;SDS011;15616;40.148;-102.718;2022-08-21T08:26:04;6.90;;;3.30;;
28373;SDS011;15616;40.148;-102.718;2022-08-21T08:28:31;5.93;;;3.22;;
28373;SDS011;15616;40.148;-102.718;2022-08-21T08:31:00;7.60;;;3.63;;
28373;SDS011;15616;40.148;-102.718;2022-08-21T08:33:26;7.25;;;3.47;;
28373;SDS011;15616;40.148;-102.718;2022-08-21T08:35:52;8.60;;;3.17;;
28373;SDS011;15616;40.148;-102.718;2022-08-21T08:38:19;6.68;;;3.10;;
28373;SDS011;15616;40.148;-102.718;2022-08-21T08:40:50;6.68;;;3.33;;
28373;SDS011;15616;40.148;-102.718;2022-08-21T08:43:25;7.47;;;3.05;;
28373;SDS011;15616;40.148;-102.718;2022-08-21T08:45:57;6.25;;;3.40;;
28373;SDS011;15616;40.148;-102.718;2022-08-21T08:49:10;8.13;;;3.17;;
28373;SDS011;15616;40.148;-102.718;2022-08-21T08:51:27;7.20;;;3.45;;
28373;SDS011;15616;40.148;-102.718;2022-08-21T08:54:05;6.40;;;3.30;;
28373;SDS011;15616;40.148;-102.718;2022-08-21T08:56:36;5.63;;;3.03;;
28373;SDS011;15616;40.148;-102.718;2022-08-21T08:59:11;7.03;;;3.28;;
28373;SDS011;15616;40.148;-102.718;2022-08-21T09:01:48;6.25;;;2.83;;
28373;SDS011;15616;40.148;-102.718;2022-08-21T09:04:14;8.43;;;3.50;;
28373;SDS011;15616;40.148;-102.718;2022-08-21T09:10:11;6.07;;;3.35;;
28373;SDS011;15616;40.148;-102.718;2022-08-21T09:20:55;6.88;;;3.33;;
28373;SDS011;15616;40.148;-102.718;2022-08-21T09:23:49;6.25;;;3.40;;
28373;SDS011;15616;40.148;-102.718;2022-08-21T09:26:51;7.10;;;3.28;;
28373;SDS011;15616;40.148;-102.718;2022-08-21T09:29:37;5.22;;;3.13;;
28373;SDS011;15616;40.148;-102.718;2022-08-21T09:32:09;6.95;;;3.60;;
28373;SDS011;15616;40.148;-102.718;2022-08-21T09:34:54;6.13;;;3.42;;
28373;SDS011;15616;40.148;-102.718;2022-08-21T09:37:21;6.55;;;3.22;;
28373;SDS011;15616;40.148;-102.718;2022-08-21T09:39:46;6.35;;;3.42;;
28373;SDS011;15616;40.148;-102.718;2022-08-21T09:42:20;7.10;;;3.55;;
28373;SDS011;15616;40.148;-102.718;2022-08-21T09:45:00;5.80;;;3.00;;
28373;SDS011;15616;40.148;-102.718;2022-08-21T09:47:37;5.07;;;2.75;;
28373;SDS011;15616;40.148;-102.718;2022-08-21T09:50:07;6.45;;;3.33;;
28373;SDS011;15616;40.148;-102.718;2022-08-21T09:52:49;7.00;;;3.20;;
28373;SDS011;15616;40.148;-102.718;2022-08-21T09:56:15;6.22;;;3.17;;
28373;SDS011;15616;40.148;-102.718;2022-08-21T09:58:33;7.20;;;3.20;;
28373;SDS011;15616;40.148;-102.718;2022-08-21T10:01:01;6.38;;;3.50;;
28373;SDS011;15616;40.148;-102.718;2022-08-21T10:03:30;5.55;;;3.22;;
28373;SDS011;15616;40.148;-102.718;2022-08-21T10:08:25;7.72;;;3.15;;
28373;SDS011;15616;40.148;-102.718;2022-08-21T10:10:57;6.03;;;3.50;;
28373;SDS011;15616;40.148;-102.718;2022-08-21T10:16:18;7.32;;;3.45;;
28373;SDS011;15616;40.148;-102.718;2022-08-21T10:21:29;10.13;;;3.53;;
28373;SDS011;15616;40.148;-102.718;2022-08-21T10:24:12;5.60;;;3.05;;
28373;SDS011;15616;40.148;-102.718;2022-08-21T10:32:46;6.20;;;3.50;;
28373;SDS011;15616;40.148;-102.718;2022-08-21T10:35:35;6.05;;;3.47;;
28373;SDS011;15616;40.148;-102.718;2022-08-21T10:57:27;7.25;;;3.40;;
28373;SDS011;15616;40.148;-102.718;2022-08-21T11:00:05;8.75;;;3.80;;
28373;SDS011;15616;40.148;-102.718;2022-08-21T11:02:57;5.20;;;3.38;;
28373;SDS011;15616;40.148;-102.718;2022-08-21T11:05:54;6.03;;;3.50;;
28373;SDS011;15616;40.148;-102.718;2022-08-21T11:08:29;6.30;;;3.45;;
28373;SDS011;15616;40.148;-102.718;2022-08-21T11:11:14;6.43;;;3.33;;
28373;SDS011;15616;40.148;-102.718;2022-08-21T11:21:54;8.52;;;3.67;;
28373;SDS011;15616;40.148;-102.718;2022-08-21T11:29:55;7.90;;;3.47;;
28373;SDS011;15616;40.148;-102.718;2022-08-21T11:38:05;6.68;;;3.20;;
28373;SDS011;15616;40.148;-102.718;2022-08-21T11:40:38;7.35;;;3.58;;
28373;SDS011;15616;40.148;-102.718;2022-08-21T11:45:56;7.40;;;3.80;;
28373;SDS011;15616;40.148;-102.718;2022-08-21T11:48:43;7.68;;;3.53;;
28373;SDS011;15616;40.148;-102.718;2022-08-21T11:51:16;6.35;;;3.35;;
28373;SDS011;15616;40.148;-102.718;2022-08-21T11:53:52;8.07;;;3.92;;
28373;SDS011;15616;40.148;-102.718;2022-08-21T11:56:48;7.30;;;3.70;;
28373;SDS011;15616;40.148;-102.718;2022-08-21T12:01:56;5.72;;;3.28;;
28373;SDS011;15616;40.148;-102.718;2022-08-21T12:04:25;8.18;;;3.60;;
28373;SDS011;15616;40.148;-102.718;2022-08-21T12:06:52;5.25;;;3.33;;
28373;SDS011;15616;40.148;-102.718;2022-08-21T12:12:01;6.35;;;3.67;;
28373;SDS011;15616;40.148;-102.718;2022-08-21T12:14:41;7.32;;;3.50;;
28373;SDS011;15616;40.148;-102.718;2022-08-21T12:17:26;6.00;;;3.38;;
28373;SDS011;15616;40.148;-102.718;2022-08-21T12:20:15;8.48;;;3.80;;
28373;SDS011;15616;40.148;-102.718;2022-08-21T12:22:55;7.18;;;3.47;;
28373;SDS011;15616;40.148;-102.718;2022-08-21T12:26:01;6.53;;;3.72;;
28373;SDS011;15616;40.148;-102.718;2022-08-21T12:28:50;5.30;;;3.40;;
28373;SDS011;15616;40.148;-102.718;2022-08-21T12:31:20;5.97;;;3.45;;
28373;SDS011;15616;40.148;-102.718;2022-08-21T12:33:51;9.48;;;3.83;;
28373;SDS011;15616;40.148;-102.718;2022-08-21T12:36:30;7.20;;;3.67;;
28373;SDS011;15616;40.148;-102.718;2022-08-21T12:39:15;5.80;;;3.60;;
28373;SDS011;15616;40.148;-102.718;2022-08-21T12:41:58;9.35;;;4.25;;
28373;SDS011;15616;40.148;-102.718;2022-08-21T12:44:39;6.38;;;3.70;;
28373;SDS011;15616;40.148;-102.718;2022-08-21T12:47:16;6.78;;;3.40;;
28373;SDS011;15616;40.148;-102.718;2022-08-21T12:49:51;7.35;;;3.92;;
28373;SDS011;15616;40.148;-102.718;2022-08-21T12:52:32;5.45;;;3.45;;
28373;SDS011;15616;40.148;-102.718;2022-08-21T12:55:02;7.40;;;3.78;;
28373;SDS011;15616;40.148;-102.718;2022-08-21T12:57:29;6.85;;;3.60;;
28373;SDS011;15616;40.148;-102.718;2022-08-21T12:59:56;8.15;;;4.05;;
28373;SDS011;15616;40.148;-102.718;2022-08-21T13:02:35;7.65;;;4.00;;
28373;SDS011;15616;40.148;-102.718;2022-08-21T13:05:05;6.95;;;3.55;;
28373;SDS011;15616;40.148;-102.718;2022-08-21T13:07:34;8.57;;;4.03;;
28373;SDS011;15616;40.148;-102.718;2022-08-21T13:10:07;8.15;;;3.95;;
28373;SDS011;15616;40.148;-102.718;2022-08-21T13:12:53;7.95;;;3.70;;
28373;SDS011;15616;40.148;-102.718;2022-08-21T13:15:33;6.90;;;4.00;;
28373;SDS011;15616;40.148;-102.718;2022-08-21T13:18:03;5.57;;;3.60;;
28373;SDS011;15616;40.148;-102.718;2022-08-21T13:20:40;8.65;;;4.07;;
28373;SDS011;15616;40.148;-102.718;2022-08-21T13:23:16;7.70;;;3.67;;
28373;SDS011;15616;40.148;-102.718;2022-08-21T13:25:48;7.38;;;3.95;;
28373;SDS011;15616;40.148;-102.718;2022-08-21T13:28:14;7.65;;;4.03;;
28373;SDS011;15616;40.148;-102.718;2022-08-21T13:30:41;6.20;;;3.60;;
28373;SDS011;15616;40.148;-102.718;2022-08-21T13:33:19;8.38;;;4.13;;
28373;SDS011;15616;40.148;-102.718;2022-08-21T13:38:32;7.68;;;3.80;;
28373;SDS011;15616;40.148;-102.718;2022-08-21T13:41:04;8.20;;;3.90;;
28373;SDS011;15616;40.148;-102.718;2022-08-21T13:43:43;6.63;;;3.92;;
28373;SDS011;15616;40.148;-102.718;2022-08-21T13:46:11;6.95;;;4.20;;
28373;SDS011;15616;40.148;-102.718;2022-08-21T13:48:39;8.45;;;4.13;;
28373;SDS011;15616;40.148;-102.718;2022-08-21T13:51:07;8.25;;;3.92;;
28373;SDS011;15616;40.148;-102.718;2022-08-21T13:53:35;7.43;;;3.70;;
28373;SDS011;15616;40.148;-102.718;2022-08-21T13:56:21;6.78;;;3.83;;
28373;SDS011;15616;40.148;-102.718;2022-08-21T13:58:53;7.25;;;3.90;;
28373;SDS011;15616;40.148;-102.718;2022-08-21T14:03:47;7.60;;;3.70;;
28373;SDS011;15616;40.148;-102.718;2022-08-21T14:06:20;6.10;;;3.90;;
28373;SDS011;15616;40.148;-102.718;2022-08-21T14:08:52;8.40;;;4.15;;
28373;SDS011;15616;40.148;-102.718;2022-08-21T14:11:23;7.78;;;3.70;;
28373;SDS011;15616;40.148;-102.718;2022-08-21T14:13:56;6.97;;;3.67;;
28373;SDS011;15616;40.148;-102.718;2022-08-21T14:16:25;7.03;;;3.97;;
28373;SDS011;15616;40.148;-102.718;2022-08-21T14:19:09;8.05;;;3.65;;
28373;SDS011;15616;40.148;-102.718;2022-08-21T14:21:42;7.20;;;4.00;;
28373;SDS011;15616;40.148;-102.718;2022-08-21T14:24:10;6.28;;;3.75;;
28373;SDS011;15616;40.148;-102.718;2022-08-21T14:26:47;6.47;;;3.78;;
28373;SDS011;15616;40.148;-102.718;2022-08-21T14:29:20;7.20;;;3.70;;
28373;SDS011;15616;40.148;-102.718;2022-08-21T14:31:57;7.18;;;4.00;;
28373;SDS011;15616;40.148;-102.718;2022-08-21T14:34:25;8.57;;;4.35;;
28373;SDS011;15616;40.148;-102.718;2022-08-21T14:36:53;6.07;;;3.80;;
28373;SDS011;15616;40.148;-102.718;2022-08-21T14:39:20;7.43;;;4.13;;
28373;SDS011;15616;40.148;-102.718;2022-08-21T14:41:46;6.88;;;3.78;;
28373;SDS011;15616;40.148;-102.718;2022-08-21T14:44:14;6.30;;;3.90;;
28373;SDS011;15616;40.148;-102.718;2022-08-21T14:46:41;7.38;;;3.90;;
28373;SDS011;15616;40.148;-102.718;2022-08-21T14:49:07;7.00;;;3.85;;
28373;SDS011;15616;40.148;-102.718;2022-08-21T14:51:33;8.85;;;4.22;;
28373;SDS011;15616;40.148;-102.718;2022-08-21T14:53:59;7.40;;;4.07;;
28373;SDS011;15616;40.148;-102.718;2022-08-21T14:56:25;8.95;;;4.55;;
28373;SDS011;15616;40.148;-102.718;2022-08-21T14:58:51;8.40;;;4.10;;
28373;SDS011;15616;40.148;-102.718;2022-08-21T15:01:19;7.90;;;3.92;;
28373;SDS011;15616;40.148;-102.718;2022-08-21T15:03:47;11.15;;;4.75;;
28373;SDS011;15616;40.148;-102.718;2022-08-21T15:06:14;8.57;;;4.25;;
28373;SDS011;15616;40.148;-102.718;2022-08-21T15:08:41;10.63;;;4.78;;
28373;SDS011;15616;40.148;-102.718;2022-08-21T15:11:08;7.30;;;3.92;;
28373;SDS011;15616;40.148;-102.718;2022-08-21T15:13:37;6.93;;;4.15;;
28373;SDS011;15616;40.148;-102.718;2022-08-21T15:16:04;6.35;;;4.07;;
28373;SDS011;15616;40.148;-102.718;2022-08-21T15:18:30;7.45;;;4.40;;
28373;SDS011;15616;40.148;-102.718;2022-08-21T15:20:56;8.82;;;4.35;;
28373;SDS011;15616;40.148;-102.718;2022-08-21T15:23:22;7.20;;;4.28;;
28373;SDS011;15616;40.148;-102.718;2022-08-21T15:25:48;6.30;;;4.03;;
28373;SDS011;15616;40.148;-102.718;2022-08-21T15:28:16;8.15;;;4.47;;
28373;SDS011;15616;40.148;-102.718;2022-08-21T15:30:43;7.50;;;4.40;;
28373;SDS011;15616;40.148;-102.718;2022-08-21T15:33:09;7.65;;;4.30;;
28373;SDS011;15616;40.148;-102.718;2022-08-21T15:35:36;8.07;;;4.07;;
28373;SDS011;15616;40.148;-102.718;2022-08-21T15:38:02;6.57;;;4.20;;
28373;SDS011;15616;40.148;-102.718;2022-08-21T15:40:29;6.95;;;4.05;;
28373;SDS011;15616;40.148;-102.718;2022-08-21T15:42:59;6.45;;;4.30;;
28373;SDS011;15616;40.148;-102.718;2022-08-21T15:45:26;10.90;;;4.20;;